sensor_id;sensor_type;location;lat;lon;timestamp;temperature;humidity
19829;DHT22;10075;50.924;4.396;2023-07-29T00:01:37;20.90;99.90
19829;DHT22;10075;50.924;4.396;2023-07-29T00:04:05;20.90;99.90
19829;DHT22;10075;50.924;4.396;2023-07-29T00:06:33;20.80;99.90
19829;DHT22;10075;50.924;4.396;2023-07-29T00:09:00;20.80;99.90
19829;DHT22;10075;50.924;4.396;2023-07-29T00:11:28;20.80;99.90
19829;DHT22;10075;50.924;4.396;2023-07-29T00:13:58;20.80;99.90
19829;DHT22;10075;50.924;4.396;2023-07-29T00:16:25;20.80;99.90
19829;DHT22;10075;50.924;4.396;2023-07-29T00:18:52;20.70;99.90
19829;DHT22;10075;50.924;4.396;2023-07-29T00:21:19;20.60;99.90
19829;DHT22;10075;50.924;4.396;2023-07-29T00:23:45;20.60;99.90
19829;DHT22;10075;50.924;4.396;2023-07-29T00:26:12;20.50;99.90
19829;DHT22;10075;50.924;4.396;2023-07-29T00:28:41;20.50;99.90
19829;DHT22;10075;50.924;4.396;2023-07-29T00:31:08;20.50;99.90
19829;DHT22;10075;50.924;4.396;2023-07-29T00:33:35;20.40;99.90
19829;DHT22;10075;50.924;4.396;2023-07-29T00:36:02;20.40;99.90
19829;DHT22;10075;50.924;4.396;2023-07-29T00:38:29;20.40;99.90
19829;DHT22;10075;50.924;4.396;2023-07-29T00:40:57;20.30;99.90
19829;DHT22;10075;50.924;4.396;2023-07-29T00:43:24;20.30;99.90
19829;DHT22;10075;50.924;4.396;2023-07-29T00:45:53;20.10;99.90
19829;DHT22;10075;50.924;4.396;2023-07-29T00:48:20;20.10;99.90
19829;DHT22;10075;50.924;4.396;2023-07-29T00:50:47;20.10;99.90
19829;DHT22;10075;50.924;4.396;2023-07-29T00:53:14;20.00;99.90
19829;DHT22;10075;50.924;4.396;2023-07-29T00:55:42;20.00;99.90
19829;DHT22;10075;50.924;4.396;2023-07-29T00:58:09;19.80;99.90
19829;DHT22;10075;50.924;4.396;2023-07-29T01:00:37;19.80;99.90
19829;DHT22;10075;50.924;4.396;2023-07-29T01:03:05;19.80;99.90
19829;DHT22;10075;50.924;4.396;2023-07-29T01:05:37;19.70;99.90
19829;DHT22;10075;50.924;4.396;2023-07-29T01:08:12;19.80;99.90
19829;DHT22;10075;50.924;4.396;2023-07-29T01:10:48;19.70;99.90
19829;DHT22;10075;50.924;4.396;2023-07-29T01:13:22;19.70;99.90
19829;DHT22;10075;50.924;4.396;2023-07-29T01:15:55;19.70;99.90
19829;DHT22;10075;50.924;4.396;2023-07-29T01:18:29;19.70;99.90
19829;DHT22;10075;50.924;4.396;2023-07-29T01:20:59;19.70;99.90
19829;DHT22;10075;50.924;4.396;2023-07-29T01:23:29;19.70;99.90
19829;DHT22;10075;50.924;4.396;2023-07-29T01:25:56;19.70;99.90
19829;DHT22;10075;50.924;4.396;2023-07-29T01:28:24;19.70;99.90
19829;DHT22;10075;50.924;4.396;2023-07-29T01:30:58;19.70;99.90
19829;DHT22;10075;50.924;4.396;2023-07-29T01:33:33;19.70;99.90
19829;DHT22;10075;50.924;4.396;2023-07-29T01:36:04;19.70;99.90
19829;DHT22;10075;50.924;4.396;2023-07-29T01:38:36;19.70;99.90
19829;DHT22;10075;50.924;4.396;2023-07-29T01:41:07;19.70;99.90
19829;DHT22;10075;50.924;4.396;2023-07-29T01:43:35;19.70;99.90
19829;DHT22;10075;50.924;4.396;2023-07-29T01:46:07;19.60;99.90
19829;DHT22;10075;50.924;4.396;2023-07-29T01:48:34;19.50;99.90
19829;DHT22;10075;50.924;4.396;2023-07-29T01:51:01;19.50;99.90
19829;DHT22;10075;50.924;4.396;2023-07-29T01:53:28;19.50;99.90
19829;DHT22;10075;50.924;4.396;2023-07-29T01:55:56;19.50;99.90
19829;DHT22;10075;50.924;4.396;2023-07-29T01:58:23;19.60;99.90
19829;DHT22;10075;50.924;4.396;2023-07-29T02:00:50;19.50;99.90
19829;DHT22;10075;50.924;4.396;2023-07-29T02:03:17;19.60;99.90
19829;DHT22;10075;50.924;4.396;2023-07-29T02:05:44;19.70;99.90
19829;DHT22;10075;50.924;4.396;2023-07-29T02:08:11;19.60;99.90
19829;DHT22;10075;50.924;4.396;2023-07-29T02:10:39;19.60;99.90
19829;DHT22;10075;50.924;4.396;2023-07-29T02:13:09;19.60;99.90
19829;DHT22;10075;50.924;4.396;2023-07-29T02:15:36;19.60;99.90
19829;DHT22;10075;50.924;4.396;2023-07-29T02:18:03;19.70;99.90
19829;DHT22;10075;50.924;4.396;2023-07-29T02:20:32;19.60;99.90
19829;DHT22;10075;50.924;4.396;2023-07-29T02:22:58;19.60;99.90
19829;DHT22;10075;50.924;4.396;2023-07-29T02:25:26;19.60;99.90
19829;DHT22;10075;50.924;4.396;2023-07-29T02:27:53;19.60;99.90
19829;DHT22;10075;50.924;4.396;2023-07-29T02:30:21;19.50;99.90
19829;DHT22;10075;50.924;4.396;2023-07-29T02:32:48;19.50;99.90
19829;DHT22;10075;50.924;4.396;2023-07-29T02:35:15;19.50;99.90
19829;DHT22;10075;50.924;4.396;2023-07-29T02:37:42;19.50;99.90
19829;DHT22;10075;50.924;4.396;2023-07-29T02:40:10;19.60;99.90
19829;DHT22;10075;50.924;4.396;2023-07-29T02:42:37;19.60;99.90
19829;DHT22;10075;50.924;4.396;2023-07-29T02:45:05;19.60;99.90
19829;DHT22;10075;50.924;4.396;2023-07-29T02:47:36;19.60;99.90
19829;DHT22;10075;50.924;4.396;2023-07-29T02:50:04;19.60;99.90
19829;DHT22;10075;50.924;4.396;2023-07-29T02:52:31;19.60;99.90
19829;DHT22;10075;50.924;4.396;2023-07-29T02:54:58;19.50;99.90
19829;DHT22;10075;50.924;4.396;2023-07-29T02:57:25;19.50;99.90
19829;DHT22;10075;50.924;4.396;2023-07-29T02:59:52;19.50;99.90
19829;DHT22;10075;50.924;4.396;2023-07-29T03:02:18;19.50;99.90
19829;DHT22;10075;50.924;4.396;2023-07-29T03:04:47;19.50;99.90
19829;DHT22;10075;50.924;4.396;2023-07-29T03:07:14;19.50;99.90
19829;DHT22;10075;50.924;4.396;2023-07-29T03:09:42;19.50;99.90
19829;DHT22;10075;50.924;4.396;2023-07-29T03:12:09;19.50;99.90
19829;DHT22;10075;50.924;4.396;2023-07-29T03:14:36;19.50;99.90
19829;DHT22;10075;50.924;4.396;2023-07-29T03:17:04;19.50;99.90
19829;DHT22;10075;50.924;4.396;2023-07-29T03:19:31;19.40;99.90
19829;DHT22;10075;50.924;4.396;2023-07-29T03:21:59;19.40;99.90
19829;DHT22;10075;50.924;4.396;2023-07-29T03:24:26;19.30;99.90
19829;DHT22;10075;50.924;4.396;2023-07-29T03:26:54;19.40;99.90
19829;DHT22;10075;50.924;4.396;2023-07-29T03:29:21;19.30;99.90
19829;DHT22;10075;50.924;4.396;2023-07-29T03:31:48;19.30;99.90
19829;DHT22;10075;50.924;4.396;2023-07-29T03:34:15;19.30;99.90
19829;DHT22;10075;50.924;4.396;2023-07-29T03:36:42;19.40;99.90
19829;DHT22;10075;50.924;4.396;2023-07-29T03:39:12;19.40;99.90
19829;DHT22;10075;50.924;4.396;2023-07-29T03:41:39;19.40;99.90
19829;DHT22;10075;50.924;4.396;2023-07-29T03:44:06;19.40;99.90
19829;DHT22;10075;50.924;4.396;2023-07-29T03:46:33;19.30;99.90
19829;DHT22;10075;50.924;4.396;2023-07-29T03:49:00;19.30;99.90
19829;DHT22;10075;50.924;4.396;2023-07-29T03:51:28;19.30;99.90
19829;DHT22;10075;50.924;4.396;2023-07-29T03:53:55;19.30;99.90
19829;DHT22;10075;50.924;4.396;2023-07-29T03:56:23;19.20;99.90
19829;DHT22;10075;50.924;4.396;2023-07-29T03:58:50;19.20;99.90
19829;DHT22;10075;50.924;4.396;2023-07-29T04:01:17;19.20;99.90
19829;DHT22;10075;50.924;4.396;2023-07-29T04:03:44;19.20;99.90
19829;DHT22;10075;50.924;4.396;2023-07-29T04:06:12;19.20;99.90
19829;DHT22;10075;50.924;4.396;2023-07-29T04:08:39;19.10;99.90
19829;DHT22;10075;50.924;4.396;2023-07-29T04:11:07;19.10;99.90
19829;DHT22;10075;50.924;4.396;2023-07-29T04:13:35;19.10;99.90
19829;DHT22;10075;50.924;4.396;2023-07-29T04:16:03;19.10;99.90
19829;DHT22;10075;50.924;4.396;2023-07-29T04:18:30;19.10;99.90
19829;DHT22;10075;50.924;4.396;2023-07-29T04:20:57;19.10;99.90
19829;DHT22;10075;50.924;4.396;2023-07-29T04:23:24;19.10;99.90
19829;DHT22;10075;50.924;4.396;2023-07-29T04:25:51;19.10;99.90
19829;DHT22;10075;50.924;4.396;2023-07-29T04:28:18;19.20;99.90
19829;DHT22;10075;50.924;4.396;2023-07-29T04:30:47;19.20;99.90
19829;DHT22;10075;50.924;4.396;2023-07-29T04:33:14;19.20;99.90
19829;DHT22;10075;50.924;4.396;2023-07-29T04:35:41;19.20;99.90
19829;DHT22;10075;50.924;4.396;2023-07-29T04:38:08;19.20;99.90
19829;DHT22;10075;50.924;4.396;2023-07-29T04:40:35;19.20;99.90
19829;DHT22;10075;50.924;4.396;2023-07-29T04:43:02;19.20;99.90
19829;DHT22;10075;50.924;4.396;2023-07-29T04:45:29;19.30;99.90
19829;DHT22;10075;50.924;4.396;2023-07-29T04:47:58;19.30;99.90
19829;DHT22;10075;50.924;4.396;2023-07-29T04:50:25;19.30;99.90
19829;DHT22;10075;50.924;4.396;2023-07-29T04:52:52;19.30;99.90
19829;DHT22;10075;50.924;4.396;2023-07-29T04:55:19;19.30;99.90
19829;DHT22;10075;50.924;4.396;2023-07-29T04:57:46;19.30;99.90
19829;DHT22;10075;50.924;4.396;2023-07-29T05:00:13;19.30;99.90
19829;DHT22;10075;50.924;4.396;2023-07-29T05:02:40;19.30;99.90
19829;DHT22;10075;50.924;4.396;2023-07-29T05:05:09;19.30;99.90
19829;DHT22;10075;50.924;4.396;2023-07-29T05:07:36;19.40;99.90
19829;DHT22;10075;50.924;4.396;2023-07-29T05:10:03;19.30;99.90
19829;DHT22;10075;50.924;4.396;2023-07-29T05:12:30;19.40;99.90
19829;DHT22;10075;50.924;4.396;2023-07-29T05:14:58;19.50;99.90
19829;DHT22;10075;50.924;4.396;2023-07-29T05:17:25;19.50;99.90
19829;DHT22;10075;50.924;4.396;2023-07-29T05:19:52;19.50;99.90
19829;DHT22;10075;50.924;4.396;2023-07-29T05:22:20;19.50;99.90
19829;DHT22;10075;50.924;4.396;2023-07-29T05:24:47;19.50;99.90
19829;DHT22;10075;50.924;4.396;2023-07-29T05:27:14;19.50;99.90
19829;DHT22;10075;50.924;4.396;2023-07-29T05:29:41;19.50;99.90
19829;DHT22;10075;50.924;4.396;2023-07-29T05:32:08;19.60;99.90
19829;DHT22;10075;50.924;4.396;2023-07-29T05:34:35;19.50;99.90
19829;DHT22;10075;50.924;4.396;2023-07-29T05:37:02;19.50;99.90
19829;DHT22;10075;50.924;4.396;2023-07-29T05:39:31;19.50;99.90
19829;DHT22;10075;50.924;4.396;2023-07-29T05:41:59;19.50;99.90
19829;DHT22;10075;50.924;4.396;2023-07-29T05:44:28;19.40;99.90
19829;DHT22;10075;50.924;4.396;2023-07-29T05:46:56;19.50;99.90
19829;DHT22;10075;50.924;4.396;2023-07-29T05:49:22;19.50;99.90
19829;DHT22;10075;50.924;4.396;2023-07-29T05:51:49;19.60;99.90
19829;DHT22;10075;50.924;4.396;2023-07-29T05:54:18;19.60;99.90
19829;DHT22;10075;50.924;4.396;2023-07-29T05:56:47;19.70;99.90
19829;DHT22;10075;50.924;4.396;2023-07-29T05:59:14;19.80;99.90
19829;DHT22;10075;50.924;4.396;2023-07-29T06:01:41;19.90;99.90
19829;DHT22;10075;50.924;4.396;2023-07-29T06:04:08;20.00;99.90
19829;DHT22;10075;50.924;4.396;2023-07-29T06:06:34;20.20;99.90
19829;DHT22;10075;50.924;4.396;2023-07-29T06:09:02;20.30;99.90
19829;DHT22;10075;50.924;4.396;2023-07-29T06:11:28;20.40;99.90
19829;DHT22;10075;50.924;4.396;2023-07-29T06:13:57;20.40;99.90
19829;DHT22;10075;50.924;4.396;2023-07-29T06:16:24;20.50;99.90
19829;DHT22;10075;50.924;4.396;2023-07-29T06:18:51;20.60;99.90
19829;DHT22;10075;50.924;4.396;2023-07-29T06:21:18;20.80;99.90
19829;DHT22;10075;50.924;4.396;2023-07-29T06:23:45;20.90;99.90
19829;DHT22;10075;50.924;4.396;2023-07-29T06:26:12;21.20;99.90
19829;DHT22;10075;50.924;4.396;2023-07-29T06:28:39;21.30;99.90
19829;DHT22;10075;50.924;4.396;2023-07-29T06:31:08;21.50;99.90
19829;DHT22;10075;50.924;4.396;2023-07-29T06:33:35;21.70;99.90
19829;DHT22;10075;50.924;4.396;2023-07-29T06:36:02;21.70;99.90
19829;DHT22;10075;50.924;4.396;2023-07-29T06:38:29;21.80;99.90
19829;DHT22;10075;50.924;4.396;2023-07-29T06:40:56;21.90;99.90
19829;DHT22;10075;50.924;4.396;2023-07-29T06:43:23;22.00;99.90
19829;DHT22;10075;50.924;4.396;2023-07-29T06:45:49;21.90;99.90
19829;DHT22;10075;50.924;4.396;2023-07-29T06:48:18;22.00;99.90
19829;DHT22;10075;50.924;4.396;2023-07-29T06:50:45;22.10;99.90
19829;DHT22;10075;50.924;4.396;2023-07-29T06:53:12;22.20;99.90
19829;DHT22;10075;50.924;4.396;2023-07-29T06:55:39;22.40;99.90
19829;DHT22;10075;50.924;4.396;2023-07-29T06:58:07;22.50;99.90
19829;DHT22;10075;50.924;4.396;2023-07-29T07:00:34;22.60;99.90
19829;DHT22;10075;50.924;4.396;2023-07-29T07:03:01;22.70;99.90
19829;DHT22;10075;50.924;4.396;2023-07-29T07:05:29;22.80;99.90
19829;DHT22;10075;50.924;4.396;2023-07-29T07:07:56;22.90;99.90
19829;DHT22;10075;50.924;4.396;2023-07-29T07:10:23;22.90;99.90
19829;DHT22;10075;50.924;4.396;2023-07-29T07:12:50;23.00;99.90
19829;DHT22;10075;50.924;4.396;2023-07-29T07:15:17;23.10;99.90
19829;DHT22;10075;50.924;4.396;2023-07-29T07:17:43;23.10;99.90
19829;DHT22;10075;50.924;4.396;2023-07-29T07:20:11;23.20;99.90
19829;DHT22;10075;50.924;4.396;2023-07-29T07:22:39;23.10;99.90
19829;DHT22;10075;50.924;4.396;2023-07-29T07:25:07;23.10;99.90
19829;DHT22;10075;50.924;4.396;2023-07-29T07:27:34;22.90;99.90
19829;DHT22;10075;50.924;4.396;2023-07-29T07:30:01;22.70;99.90
19829;DHT22;10075;50.924;4.396;2023-07-29T07:32:28;22.60;99.90
19829;DHT22;10075;50.924;4.396;2023-07-29T07:34:55;22.50;99.90
19829;DHT22;10075;50.924;4.396;2023-07-29T07:37:22;22.30;99.90
19829;DHT22;10075;50.924;4.396;2023-07-29T07:39:50;22.30;99.90
19829;DHT22;10075;50.924;4.396;2023-07-29T07:42:17;22.30;99.90
19829;DHT22;10075;50.924;4.396;2023-07-29T07:44:44;22.40;99.90
19829;DHT22;10075;50.924;4.396;2023-07-29T07:47:11;22.50;99.90
19829;DHT22;10075;50.924;4.396;2023-07-29T07:49:38;22.70;99.90
19829;DHT22;10075;50.924;4.396;2023-07-29T07:52:05;22.90;99.90
19829;DHT22;10075;50.924;4.396;2023-07-29T07:54:32;23.30;99.90
19829;DHT22;10075;50.924;4.396;2023-07-29T07:57:01;23.50;99.90
19829;DHT22;10075;50.924;4.396;2023-07-29T07:59:28;23.70;99.90
19829;DHT22;10075;50.924;4.396;2023-07-29T08:01:54;23.80;99.90
19829;DHT22;10075;50.924;4.396;2023-07-29T08:04:21;23.80;99.90
19829;DHT22;10075;50.924;4.396;2023-07-29T08:06:48;23.90;99.90
19829;DHT22;10075;50.924;4.396;2023-07-29T08:09:15;23.90;99.90
19829;DHT22;10075;50.924;4.396;2023-07-29T08:11:42;23.90;99.90
19829;DHT22;10075;50.924;4.396;2023-07-29T08:14:10;24.00;99.90
19829;DHT22;10075;50.924;4.396;2023-07-29T08:16:37;24.00;99.90
19829;DHT22;10075;50.924;4.396;2023-07-29T08:19:04;24.00;99.90
19829;DHT22;10075;50.924;4.396;2023-07-29T08:21:32;24.10;99.90
19829;DHT22;10075;50.924;4.396;2023-07-29T08:23:59;24.10;99.90
19829;DHT22;10075;50.924;4.396;2023-07-29T08:26:26;24.30;99.90
19829;DHT22;10075;50.924;4.396;2023-07-29T08:28:53;24.30;99.90
19829;DHT22;10075;50.924;4.396;2023-07-29T08:31:21;24.30;99.90
19829;DHT22;10075;50.924;4.396;2023-07-29T08:33:48;24.30;99.90
19829;DHT22;10075;50.924;4.396;2023-07-29T08:36:15;24.20;99.90
19829;DHT22;10075;50.924;4.396;2023-07-29T08:38:42;24.10;99.90
19829;DHT22;10075;50.924;4.396;2023-07-29T08:41:14;24.10;99.90
19829;DHT22;10075;50.924;4.396;2023-07-29T08:43:46;24.00;99.90
19829;DHT22;10075;50.924;4.396;2023-07-29T08:46:15;23.80;99.90
19829;DHT22;10075;50.924;4.396;2023-07-29T08:48:44;23.80;99.90
19829;DHT22;10075;50.924;4.396;2023-07-29T08:51:11;23.80;99.90
19829;DHT22;10075;50.924;4.396;2023-07-29T08:53:39;23.90;99.90
19829;DHT22;10075;50.924;4.396;2023-07-29T08:56:07;23.90;99.90
19829;DHT22;10075;50.924;4.396;2023-07-29T08:58:34;24.10;99.90
19829;DHT22;10075;50.924;4.396;2023-07-29T09:01:01;24.20;99.90
19829;DHT22;10075;50.924;4.396;2023-07-29T09:03:28;24.30;99.90
19829;DHT22;10075;50.924;4.396;2023-07-29T09:05:58;24.50;99.90
19829;DHT22;10075;50.924;4.396;2023-07-29T09:08:26;24.60;99.90
19829;DHT22;10075;50.924;4.396;2023-07-29T09:10:53;24.80;99.90
19829;DHT22;10075;50.924;4.396;2023-07-29T09:13:21;25.10;99.90
19829;DHT22;10075;50.924;4.396;2023-07-29T09:15:47;25.30;99.90
19829;DHT22;10075;50.924;4.396;2023-07-29T09:18:16;25.60;99.90
19829;DHT22;10075;50.924;4.396;2023-07-29T09:20:43;25.80;99.90
19829;DHT22;10075;50.924;4.396;2023-07-29T09:23:11;25.90;99.90
19829;DHT22;10075;50.924;4.396;2023-07-29T09:25:39;26.20;99.90
19829;DHT22;10075;50.924;4.396;2023-07-29T09:28:10;26.40;99.90
19829;DHT22;10075;50.924;4.396;2023-07-29T09:30:38;26.50;99.90
19829;DHT22;10075;50.924;4.396;2023-07-29T09:33:05;26.80;99.90
19829;DHT22;10075;50.924;4.396;2023-07-29T09:35:34;26.80;99.90
19829;DHT22;10075;50.924;4.396;2023-07-29T09:38:01;26.90;99.90
19829;DHT22;10075;50.924;4.396;2023-07-29T09:40:35;26.70;99.90
19829;DHT22;10075;50.924;4.396;2023-07-29T09:43:03;26.60;99.90
19829;DHT22;10075;50.924;4.396;2023-07-29T09:45:33;26.50;99.90
19829;DHT22;10075;50.924;4.396;2023-07-29T09:48:01;26.50;99.90
19829;DHT22;10075;50.924;4.396;2023-07-29T09:50:28;26.50;99.90
19829;DHT22;10075;50.924;4.396;2023-07-29T09:52:56;26.60;99.90
19829;DHT22;10075;50.924;4.396;2023-07-29T09:55:25;26.60;99.90
19829;DHT22;10075;50.924;4.396;2023-07-29T09:57:58;26.60;99.90
19829;DHT22;10075;50.924;4.396;2023-07-29T10:00:28;26.60;99.90
19829;DHT22;10075;50.924;4.396;2023-07-29T10:02:56;26.60;99.90
19829;DHT22;10075;50.924;4.396;2023-07-29T10:05:26;26.50;99.90
19829;DHT22;10075;50.924;4.396;2023-07-29T10:07:54;26.50;99.90
19829;DHT22;10075;50.924;4.396;2023-07-29T10:10:21;26.60;99.90
19829;DHT22;10075;50.924;4.396;2023-07-29T10:12:48;26.70;99.90
19829;DHT22;10075;50.924;4.396;2023-07-29T10:15:17;26.80;99.90
19829;DHT22;10075;50.924;4.396;2023-07-29T10:17:45;26.90;99.90
19829;DHT22;10075;50.924;4.396;2023-07-29T10:20:12;26.80;99.90
19829;DHT22;10075;50.924;4.396;2023-07-29T10:22:41;27.00;99.90
19829;DHT22;10075;50.924;4.396;2023-07-29T10:25:10;27.40;99.90
19829;DHT22;10075;50.924;4.396;2023-07-29T10:27:43;27.50;99.90
19829;DHT22;10075;50.924;4.396;2023-07-29T10:30:13;27.70;99.90
19829;DHT22;10075;50.924;4.396;2023-07-29T10:32:45;27.90;99.90
19829;DHT22;10075;50.924;4.396;2023-07-29T10:35:12;27.70;99.90
19829;DHT22;10075;50.924;4.396;2023-07-29T10:37:39;27.70;99.90
19829;DHT22;10075;50.924;4.396;2023-07-29T10:40:08;27.70;99.90
19829;DHT22;10075;50.924;4.396;2023-07-29T10:42:36;27.80;99.90
19829;DHT22;10075;50.924;4.396;2023-07-29T10:45:18;27.70;99.90
19829;DHT22;10075;50.924;4.396;2023-07-29T10:47:47;27.60;99.90
19829;DHT22;10075;50.924;4.396;2023-07-29T10:50:19;27.30;99.90
19829;DHT22;10075;50.924;4.396;2023-07-29T10:52:50;27.00;99.90
19829;DHT22;10075;50.924;4.396;2023-07-29T10:55:26;26.50;99.90
19829;DHT22;10075;50.924;4.396;2023-07-29T10:58:08;26.30;99.90
19829;DHT22;10075;50.924;4.396;2023-07-29T11:00:35;26.10;99.90
19829;DHT22;10075;50.924;4.396;2023-07-29T11:03:06;26.20;99.90
19829;DHT22;10075;50.924;4.396;2023-07-29T11:05:44;26.40;99.90
19829;DHT22;10075;50.924;4.396;2023-07-29T11:08:21;26.70;99.90
19829;DHT22;10075;50.924;4.396;2023-07-29T11:11:04;26.60;99.90
19829;DHT22;10075;50.924;4.396;2023-07-29T11:13:32;26.40;99.90
19829;DHT22;10075;50.924;4.396;2023-07-29T11:16:00;26.10;99.90
19829;DHT22;10075;50.924;4.396;2023-07-29T11:18:29;25.90;99.90
19829;DHT22;10075;50.924;4.396;2023-07-29T11:20:57;25.50;99.90
19829;DHT22;10075;50.924;4.396;2023-07-29T11:23:32;25.40;99.90
19829;DHT22;10075;50.924;4.396;2023-07-29T11:25:59;25.30;99.90
19829;DHT22;10075;50.924;4.396;2023-07-29T11:28:27;25.30;99.90
19829;DHT22;10075;50.924;4.396;2023-07-29T11:30:55;25.50;99.90
19829;DHT22;10075;50.924;4.396;2023-07-29T11:33:23;25.60;99.90
19829;DHT22;10075;50.924;4.396;2023-07-29T11:35:52;25.80;99.90
19829;DHT22;10075;50.924;4.396;2023-07-29T11:38:20;26.00;99.90
19829;DHT22;10075;50.924;4.396;2023-07-29T11:40:55;26.20;99.90
19829;DHT22;10075;50.924;4.396;2023-07-29T11:43:22;26.60;99.90
19829;DHT22;10075;50.924;4.396;2023-07-29T11:45:49;26.80;99.90
19829;DHT22;10075;50.924;4.396;2023-07-29T11:48:17;26.80;99.90
19829;DHT22;10075;50.924;4.396;2023-07-29T11:50:45;26.90;99.90
19829;DHT22;10075;50.924;4.396;2023-07-29T11:53:14;26.80;99.90
19829;DHT22;10075;50.924;4.396;2023-07-29T11:55:41;26.50;99.90
19829;DHT22;10075;50.924;4.396;2023-07-29T11:58:08;26.30;99.90
19829;DHT22;10075;50.924;4.396;2023-07-29T12:00:38;26.20;99.90
19829;DHT22;10075;50.924;4.396;2023-07-29T12:03:04;26.10;99.90
19829;DHT22;10075;50.924;4.396;2023-07-29T12:05:32;26.10;99.90
19829;DHT22;10075;50.924;4.396;2023-07-29T12:07:59;25.90;99.90
19829;DHT22;10075;50.924;4.396;2023-07-29T12:10:27;25.70;99.90
19829;DHT22;10075;50.924;4.396;2023-07-29T12:12:55;25.50;99.90
19829;DHT22;10075;50.924;4.396;2023-07-29T12:15:25;25.30;99.90
19829;DHT22;10075;50.924;4.396;2023-07-29T12:17:54;25.20;99.90
19829;DHT22;10075;50.924;4.396;2023-07-29T12:20:24;25.10;99.90
19829;DHT22;10075;50.924;4.396;2023-07-29T12:22:52;25.10;99.90
19829;DHT22;10075;50.924;4.396;2023-07-29T12:25:19;25.00;99.90
19829;DHT22;10075;50.924;4.396;2023-07-29T12:27:48;24.90;99.90
19829;DHT22;10075;50.924;4.396;2023-07-29T12:30:15;25.00;99.90
19829;DHT22;10075;50.924;4.396;2023-07-29T12:32:46;25.10;99.90
19829;DHT22;10075;50.924;4.396;2023-07-29T12:35:13;25.40;99.90
19829;DHT22;10075;50.924;4.396;2023-07-29T12:37:40;25.80;99.90
19829;DHT22;10075;50.924;4.396;2023-07-29T12:40:20;26.10;99.90
19829;DHT22;10075;50.924;4.396;2023-07-29T12:42:50;26.40;99.90
19829;DHT22;10075;50.924;4.396;2023-07-29T12:45:17;26.50;99.90
19829;DHT22;10075;50.924;4.396;2023-07-29T12:47:45;26.60;99.90
19829;DHT22;10075;50.924;4.396;2023-07-29T12:50:12;26.50;99.90
19829;DHT22;10075;50.924;4.396;2023-07-29T12:52:39;26.40;99.90
19829;DHT22;10075;50.924;4.396;2023-07-29T12:55:06;26.20;99.90
19829;DHT22;10075;50.924;4.396;2023-07-29T12:57:39;26.30;99.90
19829;DHT22;10075;50.924;4.396;2023-07-29T13:00:09;26.50;99.90
19829;DHT22;10075;50.924;4.396;2023-07-29T13:02:36;26.90;99.90
19829;DHT22;10075;50.924;4.396;2023-07-29T13:05:04;27.20;99.90
19829;DHT22;10075;50.924;4.396;2023-07-29T13:07:31;27.40;99.90
19829;DHT22;10075;50.924;4.396;2023-07-29T13:09:58;27.60;99.90
19829;DHT22;10075;50.924;4.396;2023-07-29T13:12:25;27.80;99.90
19829;DHT22;10075;50.924;4.396;2023-07-29T13:14:52;28.10;99.90
19829;DHT22;10075;50.924;4.396;2023-07-29T13:17:21;28.30;99.90
19829;DHT22;10075;50.924;4.396;2023-07-29T13:19:48;28.50;99.90
19829;DHT22;10075;50.924;4.396;2023-07-29T13:22:15;28.60;99.90
19829;DHT22;10075;50.924;4.396;2023-07-29T13:24:42;28.80;99.90
19829;DHT22;10075;50.924;4.396;2023-07-29T13:27:09;29.00;99.90
19829;DHT22;10075;50.924;4.396;2023-07-29T13:29:36;29.00;99.90
19829;DHT22;10075;50.924;4.396;2023-07-29T13:32:03;28.90;99.90
19829;DHT22;10075;50.924;4.396;2023-07-29T13:34:32;28.80;99.90
19829;DHT22;10075;50.924;4.396;2023-07-29T13:36:59;28.70;99.90
19829;DHT22;10075;50.924;4.396;2023-07-29T13:39:26;28.60;99.90
19829;DHT22;10075;50.924;4.396;2023-07-29T13:41:54;28.70;99.90
19829;DHT22;10075;50.924;4.396;2023-07-29T13:44:21;28.60;99.90
19829;DHT22;10075;50.924;4.396;2023-07-29T13:46:48;28.50;99.90
19829;DHT22;10075;50.924;4.396;2023-07-29T13:49:15;28.40;99.90
19829;DHT22;10075;50.924;4.396;2023-07-29T13:51:43;28.30;99.90
19829;DHT22;10075;50.924;4.396;2023-07-29T13:54:10;28.00;99.90
19829;DHT22;10075;50.924;4.396;2023-07-29T13:56:37;27.90;99.90
19829;DHT22;10075;50.924;4.396;2023-07-29T13:59:04;27.80;99.90
19829;DHT22;10075;50.924;4.396;2023-07-29T14:01:31;27.80;99.90
19829;DHT22;10075;50.924;4.396;2023-07-29T14:03:58;28.10;99.90
19829;DHT22;10075;50.924;4.396;2023-07-29T14:06:24;28.10;99.90
19829;DHT22;10075;50.924;4.396;2023-07-29T14:08:53;28.00;99.90
19829;DHT22;10075;50.924;4.396;2023-07-29T14:11:20;28.20;99.90
19829;DHT22;10075;50.924;4.396;2023-07-29T14:13:47;28.40;99.90
19829;DHT22;10075;50.924;4.396;2023-07-29T14:16:13;28.70;99.90
19829;DHT22;10075;50.924;4.396;2023-07-29T14:18:40;28.90;99.90
19829;DHT22;10075;50.924;4.396;2023-07-29T14:21:07;28.90;99.90
19829;DHT22;10075;50.924;4.396;2023-07-29T14:23:34;28.80;99.90
19829;DHT22;10075;50.924;4.396;2023-07-29T14:26:03;28.80;99.90
19829;DHT22;10075;50.924;4.396;2023-07-29T14:28:29;28.90;99.90
19829;DHT22;10075;50.924;4.396;2023-07-29T14:30:56;29.10;99.90
19829;DHT22;10075;50.924;4.396;2023-07-29T14:33:24;29.10;99.90
19829;DHT22;10075;50.924;4.396;2023-07-29T14:35:52;29.30;99.90
19829;DHT22;10075;50.924;4.396;2023-07-29T14:38:19;29.60;99.90
19829;DHT22;10075;50.924;4.396;2023-07-29T14:40:48;29.60;99.90
19829;DHT22;10075;50.924;4.396;2023-07-29T14:43:17;29.50;99.90
19829;DHT22;10075;50.924;4.396;2023-07-29T14:45:44;29.80;99.90
19829;DHT22;10075;50.924;4.396;2023-07-29T14:48:11;30.50;99.90
19829;DHT22;10075;50.924;4.396;2023-07-29T14:50:38;31.20;99.10
19829;DHT22;10075;50.924;4.396;2023-07-29T14:53:05;31.10;97.70
19829;DHT22;10075;50.924;4.396;2023-07-29T14:55:32;30.60;98.20
19829;DHT22;10075;50.924;4.396;2023-07-29T14:57:59;30.10;99.20
19829;DHT22;10075;50.924;4.396;2023-07-29T15:00:27;29.60;99.50
19829;DHT22;10075;50.924;4.396;2023-07-29T15:02:54;29.30;99.00
19829;DHT22;10075;50.924;4.396;2023-07-29T15:05:21;29.10;99.50
19829;DHT22;10075;50.924;4.396;2023-07-29T15:07:48;29.10;99.90
19829;DHT22;10075;50.924;4.396;2023-07-29T15:10:16;29.40;99.60
19829;DHT22;10075;50.924;4.396;2023-07-29T15:12:43;29.10;99.90
19829;DHT22;10075;50.924;4.396;2023-07-29T15:15:11;29.10;99.60
19829;DHT22;10075;50.924;4.396;2023-07-29T15:17:39;28.50;99.90
19829;DHT22;10075;50.924;4.396;2023-07-29T15:20:06;28.20;99.90
19829;DHT22;10075;50.924;4.396;2023-07-29T15:22:34;28.20;99.90
19829;DHT22;10075;50.924;4.396;2023-07-29T15:25:01;28.50;99.90
19829;DHT22;10075;50.924;4.396;2023-07-29T15:27:28;29.20;99.90
19829;DHT22;10075;50.924;4.396;2023-07-29T15:29:55;29.90;98.90
19829;DHT22;10075;50.924;4.396;2023-07-29T15:32:22;29.60;98.70
19829;DHT22;10075;50.924;4.396;2023-07-29T15:34:51;29.10;99.20